Terminal Aerodrome Forecast
Issued by NWS

Home | Current Version | Previous Version | Text Only | Print | Product List | Glossary On
Versions: 1 2 3 4 5 6 7 8 9 10 11 12 13 14 15
584
FTUS45 KPSR 282332
TAFBLH
TAF
KBLH 282332Z 2900/2924 25012KT P6SM VCSH SCT080
      TEMPO 2900/2904 25012G20KT
     FM290900 25008KT P6SM SKC
     FM291800 35010KT P6SM SKC=

USA.gov is the U.S. government's official web portal to all federal, state and local government web resources and services.